createdAt,value
2022-12-12T00:01:30.961Z,20.73
2022-12-12T00:03:59.904Z,21.17
2022-12-12T00:06:28.522Z,21.27
2022-12-12T00:08:57.070Z,22.07
2022-12-12T00:11:27.967Z,21.50
2022-12-12T00:13:56.464Z,20.93
2022-12-12T00:16:26.035Z,22.00
2022-12-12T00:18:55.496Z,21.73
2022-12-12T00:21:26.758Z,22.40
2022-12-12T00:23:56.065Z,23.13
2022-12-12T00:26:29.649Z,23.57
2022-12-12T00:28:59.048Z,25.03
2022-12-12T00:31:27.963Z,24.67
2022-12-12T00:33:56.648Z,24.43
2022-12-12T00:36:27.113Z,22.17
2022-12-12T00:38:55.928Z,22.57
2022-12-12T00:41:26.446Z,23.20
2022-12-12T00:43:54.923Z,22.20
2022-12-12T00:46:24.969Z,21.83
2022-12-12T00:48:57.657Z,23.13
2022-12-12T00:51:28.045Z,23.23
2022-12-12T00:53:58.067Z,22.93
2022-12-12T00:56:29.156Z,21.27
2022-12-12T00:58:57.655Z,21.97
2022-12-12T01:01:29.619Z,22.50
2022-12-12T01:03:59.271Z,22.73
2022-12-12T01:06:28.373Z,20.27
2022-12-12T01:08:56.898Z,21.67
2022-12-12T01:11:25.531Z,21.27
2022-12-12T01:13:56.421Z,20.90
2022-12-12T01:16:26.105Z,21.00
2022-12-12T01:18:54.933Z,20.77
2022-12-12T01:21:23.498Z,21.53
2022-12-12T01:23:52.031Z,20.70
2022-12-12T01:26:24.264Z,21.07
2022-12-12T01:28:54.375Z,21.67
2022-12-12T01:31:23.373Z,20.03
2022-12-12T01:33:52.514Z,20.50
2022-12-12T01:36:23.075Z,19.13
2022-12-12T01:38:54.494Z,19.93
2022-12-12T01:41:23.720Z,20.00
2022-12-12T01:43:52.311Z,20.33
2022-12-12T01:46:44.381Z,18.77
2022-12-12T01:49:25.185Z,19.90
2022-12-12T01:52:01.570Z,19.90
2022-12-12T01:54:33.855Z,18.80
2022-12-12T01:57:06.551Z,20.17
2022-12-12T01:59:35.824Z,19.70
2022-12-12T02:02:07.331Z,20.27
2022-12-12T02:04:36.399Z,18.77
2022-12-12T02:07:05.566Z,19.87
2022-12-12T02:09:34.893Z,21.17
2022-12-12T02:12:03.629Z,20.17
2022-12-12T02:14:35.073Z,20.50
2022-12-12T02:17:30.516Z,20.93
2022-12-12T02:20:35.002Z,20.97
2022-12-12T02:23:34.241Z,18.60
2022-12-12T02:26:28.460Z,19.33
2022-12-12T02:29:42.878Z,18.63
2022-12-12T02:32:24.624Z,19.73
2022-12-12T02:35:02.689Z,21.60
2022-12-12T02:37:36.414Z,19.70
2022-12-12T02:40:14.884Z,21.23
2022-12-12T02:42:49.781Z,20.17
2022-12-12T02:45:26.869Z,20.10
2022-12-12T02:48:01.193Z,22.17
2022-12-12T02:50:31.962Z,20.93
2022-12-12T02:53:01.252Z,21.47
2022-12-12T02:55:33.747Z,20.47
2022-12-12T02:58:05.932Z,21.37
2022-12-12T03:00:41.544Z,20.63
2022-12-12T03:03:43.393Z,21.50
2022-12-12T03:06:41.270Z,21.70
2022-12-12T03:09:17.492Z,21.37
2022-12-12T03:11:57.549Z,24.03
2022-12-12T03:14:34.607Z,21.13
2022-12-12T03:17:09.834Z,21.60
2022-12-12T03:19:45.907Z,20.90
2022-12-12T03:22:22.557Z,21.03
2022-12-12T03:24:55.617Z,20.93
2022-12-12T03:27:28.211Z,21.67
2022-12-12T03:30:01.934Z,20.40
2022-12-12T03:32:36.057Z,20.57
2022-12-12T03:35:13.263Z,20.33
2022-12-12T03:37:47.332Z,19.63
2022-12-12T03:40:19.924Z,20.17
2022-12-12T03:42:51.206Z,21.93
2022-12-12T03:45:25.177Z,20.47
2022-12-12T03:47:58.308Z,23.37
2022-12-12T03:50:32.921Z,20.73
2022-12-12T03:53:04.674Z,19.80
2022-12-12T03:55:38.946Z,19.00
2022-12-12T03:58:14.691Z,19.50
2022-12-12T04:00:46.334Z,20.27
2022-12-12T04:03:21.172Z,19.43
2022-12-12T04:06:16.444Z,19.10
2022-12-12T04:09:05.643Z,19.90
2022-12-12T04:11:57.358Z,20.73
2022-12-12T04:14:52.722Z,19.40
2022-12-12T04:17:27.387Z,18.97
2022-12-12T04:20:17.387Z,21.80
2022-12-12T04:23:17.479Z,19.87
2022-12-12T04:26:16.632Z,19.77
2022-12-12T04:28:52.009Z,20.67
2022-12-12T04:31:24.406Z,20.50
2022-12-12T04:33:57.573Z,21.90
2022-12-12T04:36:27.353Z,19.53
2022-12-12T04:38:58.577Z,20.07
2022-12-12T04:41:29.781Z,21.63
2022-12-12T04:44:00.732Z,19.97
2022-12-12T04:46:33.321Z,22.73
2022-12-12T04:49:05.904Z,20.60
2022-12-12T04:51:37.918Z,20.87
2022-12-12T04:54:12.086Z,21.73
2022-12-12T04:56:43.524Z,20.67
2022-12-12T04:59:12.680Z,23.17
2022-12-12T05:01:53.418Z,21.30
2022-12-12T05:04:26.965Z,22.67
2022-12-12T05:07:01.107Z,23.40
2022-12-12T05:09:31.181Z,22.63
2022-12-12T05:14:43.548Z,22.87
2022-12-12T05:17:18.442Z,21.23
2022-12-12T05:19:46.942Z,20.83
2022-12-12T05:22:34.193Z,20.80
2022-12-12T05:25:11.269Z,22.13
2022-12-12T05:27:47.830Z,22.70
2022-12-12T05:30:23.547Z,23.10
2022-12-12T05:34:01.499Z,23.50
2022-12-12T05:36:51.274Z,23.17
2022-12-12T05:39:33.155Z,22.93
2022-12-12T05:45:49.997Z,23.43
2022-12-12T05:48:24.669Z,24.97
2022-12-12T05:51:16.956Z,22.43
2022-12-12T05:58:23.431Z,22.57
2022-12-12T06:01:34.965Z,21.97
2022-12-12T06:07:22.210Z,21.73
2022-12-12T06:10:24.881Z,22.40
2022-12-12T06:21:30.675Z,23.87
2022-12-12T06:24:31.001Z,21.30
2022-12-12T06:27:54.569Z,21.33
2022-12-12T06:35:21.543Z,19.73
2022-12-12T06:49:12.452Z,20.57
2022-12-12T06:52:55.078Z,19.73
2022-12-12T06:56:33.322Z,19.07
2022-12-12T07:00:01.684Z,19.80
2022-12-12T07:03:06.931Z,19.63
2022-12-12T07:14:00.246Z,19.33
2022-12-12T07:27:40.473Z,19.33
2022-12-12T07:30:09.883Z,18.53
2022-12-12T07:32:39.571Z,17.07
2022-12-12T07:35:08.441Z,18.10
2022-12-12T07:37:36.819Z,17.13
2022-12-12T07:40:06.083Z,19.17
2022-12-12T07:42:34.743Z,19.10
2022-12-12T07:45:03.165Z,17.60
2022-12-12T07:47:31.600Z,18.50
2022-12-12T07:50:01.383Z,18.00
2022-12-12T07:52:29.864Z,17.33
2022-12-12T07:54:58.338Z,17.70
2022-12-12T07:57:26.870Z,17.03
2022-12-12T07:59:55.331Z,16.93
2022-12-12T08:02:23.762Z,17.83
2022-12-12T08:04:52.332Z,17.47
2022-12-12T08:07:22.215Z,18.20
2022-12-12T08:09:50.691Z,17.00
2022-12-12T08:12:19.111Z,17.33
2022-12-12T08:14:47.641Z,19.87
2022-12-12T08:17:16.233Z,16.83
2022-12-12T08:19:44.738Z,17.40
2022-12-12T08:22:14.012Z,15.63
2022-12-12T08:24:43.838Z,16.93
2022-12-12T08:27:15.776Z,17.00
2022-12-12T08:29:45.822Z,16.30
2022-12-12T08:32:14.230Z,16.50
2022-12-12T08:34:42.603Z,16.93
2022-12-12T08:37:11.112Z,16.67
2022-12-12T08:39:40.224Z,17.70
2022-12-12T08:42:09.999Z,16.50
2022-12-12T08:44:38.432Z,16.77
2022-12-12T08:47:06.918Z,17.53
2022-12-12T08:49:35.610Z,17.07
2022-12-12T08:52:06.170Z,16.07
2022-12-12T08:54:34.654Z,16.20
2022-12-12T08:57:03.291Z,16.30
2022-12-12T08:59:33.507Z,16.60
2022-12-12T09:02:02.061Z,15.97
2022-12-12T09:04:30.603Z,15.13
2022-12-12T09:07:03.493Z,15.83
2022-12-12T09:09:35.253Z,15.03
2022-12-12T09:12:03.965Z,15.93
2022-12-12T09:14:34.297Z,17.43
2022-12-12T09:17:02.772Z,16.57
2022-12-12T09:19:31.249Z,16.70
2022-12-12T09:21:59.738Z,16.43
2022-12-12T09:24:28.382Z,17.40
2022-12-12T09:26:56.904Z,16.60
2022-12-12T09:29:25.345Z,16.73
2022-12-12T09:31:55.385Z,16.10
2022-12-12T09:34:23.909Z,16.50
2022-12-12T09:36:52.381Z,16.27
2022-12-12T09:39:20.853Z,16.57
2022-12-12T09:41:49.371Z,17.13
2022-12-12T09:44:22.561Z,15.70
2022-12-12T09:46:55.552Z,16.23
2022-12-12T09:49:28.529Z,17.33
2022-12-12T09:51:58.383Z,16.53
2022-12-12T09:54:28.624Z,16.47
2022-12-12T09:57:17.100Z,16.23
2022-12-12T09:59:52.761Z,17.67
2022-12-12T10:02:47.588Z,17.70
2022-12-12T10:05:28.235Z,17.53
2022-12-12T10:08:04.803Z,17.97
2022-12-12T10:10:35.594Z,17.93
2022-12-12T10:13:07.668Z,18.53
2022-12-12T10:15:40.465Z,17.43
2022-12-12T10:18:16.171Z,18.00
2022-12-12T10:20:51.091Z,18.40
2022-12-12T10:23:25.920Z,18.40
2022-12-12T10:25:57.742Z,18.80
2022-12-12T10:28:28.687Z,17.17
2022-12-12T10:31:06.343Z,18.00
2022-12-12T10:33:48.337Z,18.83
2022-12-12T10:36:28.869Z,20.07
2022-12-12T10:39:15.453Z,18.30
2022-12-12T10:41:51.694Z,19.20
2022-12-12T10:44:47.379Z,19.00
2022-12-12T10:47:16.330Z,20.00
2022-12-12T10:49:46.235Z,18.67
2022-12-12T10:52:19.388Z,18.47
2022-12-12T10:54:52.958Z,16.63
2022-12-12T10:57:24.584Z,18.73
2022-12-12T10:59:55.077Z,19.00
2022-12-12T11:02:37.559Z,17.80
2022-12-12T11:05:17.615Z,19.23
2022-12-12T11:07:49.135Z,18.13
2022-12-12T11:10:30.557Z,17.97
2022-12-12T11:13:04.861Z,19.13
2022-12-12T11:15:42.492Z,19.20
2022-12-12T11:18:16.466Z,18.47
2022-12-12T11:20:48.890Z,19.13
2022-12-12T11:23:22.365Z,19.80
2022-12-12T11:25:57.650Z,20.13
2022-12-12T11:28:34.127Z,21.03
2022-12-12T11:31:06.878Z,20.03
2022-12-12T11:33:39.722Z,20.23
2022-12-12T11:36:16.460Z,18.87
2022-12-12T11:38:50.803Z,20.77
2022-12-12T11:41:19.465Z,21.20
2022-12-12T11:44:01.592Z,19.77
2022-12-12T11:46:33.654Z,19.17
2022-12-12T11:49:07.150Z,19.57
2022-12-12T11:51:39.812Z,20.27
2022-12-12T11:54:14.324Z,21.17
2022-12-12T11:56:51.565Z,19.93
2022-12-12T11:59:38.397Z,19.90
2022-12-12T12:02:28.271Z,19.43
2022-12-12T12:05:06.585Z,19.37
2022-12-12T12:07:54.437Z,19.87
2022-12-12T12:10:38.444Z,19.47
2022-12-12T12:13:23.384Z,20.40
2022-12-12T12:15:56.352Z,20.43
2022-12-12T12:18:43.360Z,20.60
2022-12-12T12:21:34.243Z,19.33
2022-12-12T12:24:28.132Z,20.77
2022-12-12T12:27:07.605Z,19.53
2022-12-12T12:30:18.943Z,22.27
2022-12-12T12:33:05.425Z,20.03
2022-12-12T12:35:43.628Z,21.67
2022-12-12T12:38:26.128Z,20.73
2022-12-12T12:41:19.214Z,20.00
2022-12-12T12:44:01.729Z,20.43
2022-12-12T12:46:40.937Z,19.30
2022-12-12T12:49:15.931Z,19.23
2022-12-12T12:51:50.621Z,20.00
2022-12-12T12:54:26.054Z,19.67
2022-12-12T12:57:01.520Z,19.00
2022-12-12T12:59:36.227Z,19.17
2022-12-12T13:02:13.551Z,19.07
2022-12-12T13:04:49.614Z,19.70
2022-12-12T13:07:28.332Z,19.53
2022-12-12T13:10:02.486Z,19.37
2022-12-12T13:12:36.497Z,19.20
2022-12-12T13:15:08.422Z,19.20
2022-12-12T13:17:49.697Z,18.63
2022-12-12T13:20:21.859Z,17.20
2022-12-12T13:23:00.872Z,16.43
2022-12-12T13:25:37.601Z,16.70
2022-12-12T13:28:13.744Z,17.17
2022-12-12T13:31:12.726Z,17.47
2022-12-12T13:33:47.111Z,17.60
2022-12-12T13:36:25.938Z,17.90
2022-12-12T13:38:59.433Z,17.33
2022-12-12T13:41:28.320Z,17.33
2022-12-12T13:44:00.287Z,18.13
2022-12-12T13:46:42.451Z,17.30
2022-12-12T13:49:31.482Z,17.13
2022-12-12T13:52:28.283Z,17.63
2022-12-12T13:55:23.473Z,16.60
2022-12-12T13:58:18.838Z,17.47
2022-12-12T14:00:48.709Z,17.30
2022-12-12T14:03:34.524Z,17.10
2022-12-12T14:06:12.404Z,16.87
2022-12-12T14:08:49.649Z,17.10
2022-12-12T14:11:32.193Z,16.63
2022-12-12T14:14:21.024Z,17.13
2022-12-12T14:16:58.431Z,16.43
2022-12-12T14:19:31.181Z,17.60
2022-12-12T14:21:59.660Z,17.33
2022-12-12T14:25:05.021Z,17.30
2022-12-12T14:28:03.360Z,17.43
2022-12-12T14:30:56.643Z,17.73
2022-12-12T14:33:58.203Z,16.63
2022-12-12T14:37:08.470Z,17.20
2022-12-12T14:39:59.761Z,16.80
2022-12-12T14:43:15.876Z,17.80
2022-12-12T14:45:35.989Z,17.93
2022-12-12T14:48:21.463Z,17.93
2022-12-12T14:50:56.464Z,16.97
2022-12-12T14:53:30.087Z,17.20
2022-12-12T14:56:01.457Z,17.30
2022-12-12T14:58:32.305Z,17.87
2022-12-12T15:01:02.853Z,18.13
2022-12-12T15:03:35.498Z,17.63
2022-12-12T15:06:29.643Z,17.47
2022-12-12T15:09:15.902Z,17.17
2022-12-12T15:11:45.199Z,17.10
2022-12-12T15:14:21.078Z,16.73
2022-12-12T15:16:53.769Z,17.73
2022-12-12T15:19:28.843Z,16.37
2022-12-12T15:21:58.233Z,17.67
2022-12-12T15:24:30.793Z,16.60
2022-12-12T15:27:00.612Z,16.90
2022-12-12T15:29:33.160Z,16.53
2022-12-12T15:32:04.785Z,17.07
2022-12-12T15:34:37.472Z,17.33
2022-12-12T15:37:23.802Z,17.43
2022-12-12T15:40:03.753Z,16.13
2022-12-12T15:42:32.533Z,16.73
2022-12-12T15:45:02.030Z,17.63
2022-12-12T15:47:30.646Z,16.03
2022-12-12T15:50:08.562Z,15.70
2022-12-12T15:52:37.063Z,16.87
2022-12-12T15:55:08.162Z,17.53
2022-12-12T15:57:47.004Z,16.47
2022-12-12T16:00:30.345Z,16.83
2022-12-12T16:03:05.203Z,16.40
2022-12-12T16:05:37.189Z,15.43
2022-12-12T16:08:31.761Z,16.27
2022-12-12T16:11:04.440Z,15.43
2022-12-12T16:13:40.633Z,16.63
2022-12-12T16:16:36.055Z,15.20
2022-12-12T16:19:05.476Z,15.77
2022-12-12T16:21:36.712Z,15.83
2022-12-12T16:24:13.699Z,16.67
2022-12-12T16:26:43.404Z,15.80
2022-12-12T16:29:11.772Z,16.37
2022-12-12T16:31:40.414Z,15.10
2022-12-12T16:34:09.888Z,15.40
2022-12-12T16:36:42.224Z,15.97
2022-12-12T16:39:13.825Z,16.20
2022-12-12T16:41:43.867Z,15.93
2022-12-12T16:44:12.353Z,16.03
2022-12-12T16:46:40.859Z,16.07
2022-12-12T16:49:15.095Z,16.90
2022-12-12T16:51:44.303Z,16.27
2022-12-12T16:54:17.984Z,15.70
2022-12-12T16:56:52.640Z,16.53
2022-12-12T16:59:21.112Z,15.27
2022-12-12T17:01:49.641Z,15.90
2022-12-12T17:04:23.085Z,15.00
2022-12-12T17:06:52.014Z,16.50
2022-12-12T17:09:23.306Z,16.60
2022-12-12T17:11:55.671Z,16.00
2022-12-12T17:14:25.957Z,17.37
2022-12-12T17:16:54.968Z,16.63
2022-12-12T17:19:23.859Z,16.70
2022-12-12T17:21:52.321Z,16.23
2022-12-12T17:24:20.743Z,16.00
2022-12-12T17:26:49.869Z,15.20
2022-12-12T17:29:19.611Z,15.33
2022-12-12T17:31:48.257Z,14.43
2022-12-12T17:34:16.793Z,15.70
2022-12-12T17:36:45.313Z,15.67
2022-12-12T17:39:13.834Z,16.37
2022-12-12T17:41:42.281Z,15.27
2022-12-12T17:44:10.693Z,15.83
2022-12-12T17:46:41.604Z,16.47
2022-12-12T17:49:10.050Z,16.33
2022-12-12T17:51:38.563Z,16.80
2022-12-12T17:54:07.154Z,16.63
2022-12-12T17:56:35.556Z,17.77
2022-12-12T17:59:06.137Z,16.80
2022-12-12T18:01:34.917Z,16.43
2022-12-12T18:04:06.175Z,16.97
2022-12-12T18:06:36.098Z,17.80
2022-12-12T18:09:04.963Z,17.73
2022-12-12T18:11:35.808Z,17.73
2022-12-12T18:14:07.380Z,17.40
2022-12-12T18:16:37.234Z,16.97
2022-12-12T18:19:07.124Z,15.93
2022-12-12T18:22:00.245Z,16.80
2022-12-12T18:24:29.435Z,16.17
2022-12-12T18:26:59.668Z,18.87
2022-12-12T18:29:29.145Z,17.07
2022-12-12T18:31:57.835Z,17.27
2022-12-12T18:34:28.507Z,19.17
2022-12-12T18:36:57.045Z,18.37
2022-12-12T18:39:25.531Z,18.13
2022-12-12T18:41:53.979Z,17.83
2022-12-12T18:44:22.533Z,17.50
2022-12-12T18:46:52.154Z,19.67
2022-12-12T18:49:20.721Z,17.03
2022-12-12T18:51:50.582Z,17.40
2022-12-12T18:54:19.061Z,18.67
2022-12-12T18:56:48.220Z,17.93
2022-12-12T18:59:17.655Z,18.23
2022-12-12T19:01:46.387Z,18.03
2022-12-12T19:04:21.179Z,17.27
2022-12-12T19:06:55.306Z,19.23
2022-12-12T19:09:24.101Z,18.17
2022-12-12T19:12:01.654Z,18.13
2022-12-12T19:15:15.278Z,18.40
2022-12-12T19:17:25.357Z,19.10
2022-12-12T19:19:55.069Z,18.40
2022-12-12T19:22:45.414Z,18.37
2022-12-12T19:25:13.501Z,18.10
2022-12-12T19:27:42.274Z,18.27
2022-12-12T19:30:12.419Z,18.97
2022-12-12T19:32:41.091Z,19.40
2022-12-12T19:35:10.118Z,19.40
2022-12-12T19:37:39.962Z,20.17
2022-12-12T19:40:09.922Z,18.67
2022-12-12T19:42:39.002Z,18.93
2022-12-12T19:45:08.374Z,18.13
2022-12-12T19:47:37.038Z,19.30
2022-12-12T19:50:06.126Z,19.40
2022-12-12T19:52:34.643Z,19.33
2022-12-12T19:55:04.574Z,19.50
2022-12-12T19:57:33.601Z,19.77
2022-12-12T20:00:02.047Z,20.00
2022-12-12T20:02:37.969Z,21.57
2022-12-12T20:05:06.947Z,19.40
2022-12-12T20:07:35.402Z,20.57
2022-12-12T20:10:05.613Z,19.67
2022-12-12T20:12:46.187Z,20.80
2022-12-12T20:15:20.433Z,19.73
2022-12-12T20:17:48.881Z,21.37
2022-12-12T20:20:17.500Z,20.90
2022-12-12T20:22:45.979Z,20.73
2022-12-12T20:25:15.694Z,20.37
2022-12-12T20:27:44.062Z,21.23
2022-12-12T20:30:13.709Z,21.73
2022-12-12T20:32:42.423Z,20.40
2022-12-12T20:35:11.736Z,22.47
2022-12-12T20:37:40.235Z,20.33
2022-12-12T20:40:09.937Z,19.07
2022-12-12T20:42:39.708Z,19.03
2022-12-12T20:45:08.583Z,20.80
2022-12-12T20:47:37.010Z,21.73
2022-12-12T20:50:06.441Z,19.47
2022-12-12T20:52:34.846Z,20.93
2022-12-12T20:55:03.415Z,20.77
2022-12-12T20:57:32.378Z,21.23
2022-12-12T21:00:02.911Z,20.63
2022-12-12T21:02:31.450Z,19.07
2022-12-12T21:04:59.972Z,21.10
2022-12-12T21:07:28.453Z,20.63
2022-12-12T21:09:57.038Z,20.77
2022-12-12T21:12:28.185Z,19.97
2022-12-12T21:15:02.429Z,20.70
2022-12-12T21:17:32.796Z,20.73
2022-12-12T21:20:06.349Z,21.17
2022-12-12T21:22:35.834Z,21.20
2022-12-12T21:25:04.448Z,21.90
2022-12-12T21:27:33.277Z,19.27
2022-12-12T21:30:01.932Z,20.53
2022-12-12T21:32:30.369Z,19.67
2022-12-12T21:35:00.139Z,19.17
2022-12-12T21:37:28.586Z,21.33
2022-12-12T21:39:57.082Z,20.23
2022-12-12T21:42:25.537Z,20.43
2022-12-12T21:44:54.048Z,21.17
2022-12-12T21:47:22.427Z,21.37
2022-12-12T21:49:50.877Z,21.03
2022-12-12T21:52:21.780Z,20.10
2022-12-12T21:54:50.219Z,21.10
2022-12-12T21:57:24.599Z,20.50
2022-12-12T21:59:53.365Z,21.57
2022-12-12T22:02:21.826Z,20.57
2022-12-12T22:04:50.414Z,19.97
2022-12-12T22:07:20.993Z,19.87
2022-12-12T22:09:57.714Z,20.70
2022-12-12T22:12:39.692Z,21.93
2022-12-12T22:15:08.863Z,22.13
2022-12-12T22:17:37.369Z,21.43
2022-12-12T22:20:06.043Z,21.67
2022-12-12T22:22:35.805Z,21.93
2022-12-12T22:25:04.477Z,22.53
2022-12-12T22:27:35.113Z,22.07
2022-12-12T22:30:03.683Z,20.43
2022-12-12T22:32:32.082Z,21.60
2022-12-12T22:35:00.589Z,21.77
2022-12-12T22:37:29.152Z,20.53
2022-12-12T22:39:58.961Z,20.53
2022-12-12T22:42:27.450Z,20.80
2022-12-12T22:44:55.901Z,21.83
2022-12-12T22:47:24.975Z,21.13
2022-12-12T22:49:53.540Z,20.20
2022-12-12T22:52:21.945Z,20.97
2022-12-12T22:54:50.338Z,20.87
2022-12-12T22:57:20.253Z,20.80
2022-12-12T22:59:49.533Z,19.57
2022-12-12T23:02:24.670Z,21.07
2022-12-12T23:04:53.782Z,21.30
2022-12-12T23:07:22.592Z,20.43
2022-12-12T23:09:55.483Z,21.33
2022-12-12T23:12:25.214Z,20.60
2022-12-12T23:14:53.660Z,20.80
2022-12-12T23:17:22.109Z,20.77
2022-12-12T23:19:50.722Z,19.90
2022-12-12T23:22:19.155Z,20.10
2022-12-12T23:24:47.725Z,20.97
2022-12-12T23:27:16.222Z,20.30
2022-12-12T23:29:46.082Z,21.00
2022-12-12T23:32:14.872Z,21.07
2022-12-12T23:34:43.301Z,20.67
2022-12-12T23:37:11.740Z,21.13
2022-12-12T23:39:40.766Z,20.00
2022-12-12T23:42:09.384Z,21.53
2022-12-12T23:44:37.804Z,21.60
2022-12-12T23:47:07.585Z,21.93
2022-12-12T23:49:36.011Z,21.60
2022-12-12T23:52:04.805Z,21.50
2022-12-12T23:54:35.071Z,20.23
2022-12-12T23:57:04.294Z,22.03
2022-12-12T23:59:32.744Z,21.13
